Time;durP1;ratioP1;P1;durP2;ratioP2;P2;SDS_P1;SDS_P2;PMS_P1;PMS_P2;Temp;Humidity;BMP_temperature;BMP_pressure;BME280_temperature;BME280_humidity;BME280_pressure;Samples;Min_cycle;Max_cycle;Signal;HPM_P1;HPM_P2
2023/02/25 00:01:18;;;;;;;;;;;;;;;4.60;100.00;95449.06;4998747;28;19917;-67
2023/02/25 00:03:43;;;;;;;;;;;;;;;4.42;100.00;95447.94;5000426;28;20417;-67
2023/02/25 00:06:12;;;;;;;;;;;;;;;4.26;100.00;95427.09;4999913;28;19959;-66
2023/02/25 00:08:38;;;;;;;;;;;;;;;4.19;100.00;95435.88;5006070;28;19921;-66
2023/02/25 00:11:04;;;;;;;;;;;;;;;4.40;100.00;95437.44;5004135;28;19948;-68
2023/02/25 00:13:30;;;;;;;;;;;;;;;4.21;100.00;95444.44;5006000;28;20355;-65
2023/02/25 00:15:56;;;;;;;;;;;;;;;4.21;100.00;95449.88;5006425;28;19932;-68
2023/02/25 00:18:23;;;;;;;;;;;;;;;4.11;100.00;95446.94;5001753;28;21028;-67
2023/02/25 00:20:48;;;;;;;;;;;;;;;4.06;100.00;95448.00;5005674;28;20001;-66
2023/02/25 00:23:14;;;;;;;;;;;;;;;4.02;100.00;95445.19;4999362;28;20607;-66
2023/02/25 00:25:39;;;;;;;;;;;;;;;3.85;100.00;95442.09;5005426;28;20341;-69
2023/02/25 00:28:05;;;;;;;;;;;;;;;3.90;100.00;95453.44;5001851;28;19930;-69
2023/02/25 00:30:31;;;;;;;;;;;;;;;3.78;100.00;95456.28;5004736;28;19918;-66
2023/02/25 00:32:56;;;;;;;;;;;;;;;3.87;100.00;95456.06;5005804;28;20382;-66
2023/02/25 00:35:21;;;;;;;;;;;;;;;3.82;100.00;95462.56;4998579;28;19940;-68
2023/02/25 00:37:49;;;;;;;;;;;;;;;3.88;100.00;95461.16;5006603;28;20282;-66
2023/02/25 00:40:14;;;;;;;;;;;;;;;3.78;100.00;95462.50;5002045;28;19922;-67
2023/02/25 00:42:40;;;;;;;;;;;;;;;3.79;100.00;95471.41;5006346;28;19917;-67
2023/02/25 00:45:07;;;;;;;;;;;;;;;3.79;100.00;95472.16;5001853;28;19924;-66
2023/02/25 00:47:32;;;;;;;;;;;;;;;3.86;100.00;95484.31;5006136;28;19975;-66
2023/02/25 00:49:57;;;;;;;;;;;;;;;3.89;100.00;95476.28;5006766;28;19968;-67
2023/02/25 00:52:23;;;;;;;;;;;;;;;3.94;100.00;95472.50;5000594;28;19922;-66
2023/02/25 00:54:48;;;;;;;;;;;;;;;4.06;100.00;95471.59;5006081;28;19918;-70
2023/02/25 00:57:13;;;;;;;;;;;;;;;4.18;100.00;95471.47;4999305;28;20007;-67
2023/02/25 00:59:39;;;;;;;;;;;;;;;4.10;100.00;95472.44;5005188;28;19964;-68
2023/02/25 01:02:04;;;;;;;;;;;;;;;4.05;100.00;95486.28;5003626;28;19922;-70
2023/02/25 01:04:29;;;;;;;;;;;;;;;4.05;100.00;95484.34;5013854;28;20657;-66
2023/02/25 01:06:54;;;;;;;;;;;;;;;3.87;100.00;95500.22;4992611;28;20375;-68
2023/02/25 01:09:20;;;;;;;;;;;;;;;3.84;100.00;95500.91;5001358;28;19925;-65
2023/02/25 01:11:46;;;;;;;;;;;;;;;3.91;100.00;95509.22;5005582;28;19917;-67
2023/02/25 01:14:17;;;;;;;;;;;;;;;3.87;100.00;95504.84;5000475;28;19930;-67
2023/02/25 01:16:43;;;;;;;;;;;;;;;4.05;100.00;95516.06;5003924;28;19918;-66
2023/02/25 01:19:12;;;;;;;;;;;;;;;4.17;100.00;95519.44;5001284;28;19983;-67
2023/02/25 01:21:39;;;;;;;;;;;;;;;4.17;100.00;95526.81;5006248;28;19924;-66
2023/02/25 01:24:12;;;;;;;;;;;;;;;4.07;100.00;95541.69;5000845;28;19953;-70
2023/02/25 01:26:40;;;;;;;;;;;;;;;4.09;100.00;95525.06;5003913;28;19925;-67
2023/02/25 01:29:07;;;;;;;;;;;;;;;4.18;100.00;95531.88;5014815;28;19926;-70
2023/02/25 01:31:32;;;;;;;;;;;;;;;4.20;100.00;95553.97;5020252;28;19917;-66
2023/02/25 01:33:58;;;;;;;;;;;;;;;4.38;100.00;95535.41;5005301;28;19940;-67
2023/02/25 01:36:23;;;;;;;;;;;;;;;4.36;100.00;95528.78;4998437;28;20450;-66
2023/02/25 01:38:48;;;;;;;;;;;;;;;4.21;100.00;95514.09;5005292;28;19969;-64
2023/02/25 01:41:14;;;;;;;;;;;;;;;4.31;100.00;95502.72;5002481;28;19921;-67
2023/02/25 01:43:39;;;;;;;;;;;;;;;4.34;100.00;95517.47;5008379;28;19976;-66
2023/02/25 01:46:05;;;;;;;;;;;;;;;4.14;100.00;95512.06;5002605;28;19926;-69
2023/02/25 01:48:32;;;;;;;;;;;;;;;4.04;100.00;95522.66;5025719;28;19922;-69
2023/02/25 01:51:01;;;;;;;;;;;;;;;4.14;100.00;95527.50;5023194;28;19917;-67
2023/02/25 01:53:36;;;;;;;;;;;;;;;4.00;100.00;95509.81;5000936;28;19925;-66
2023/02/25 01:56:02;;;;;;;;;;;;;;;4.08;100.00;95512.66;5001751;28;20386;-65
2023/02/25 01:58:27;;;;;;;;;;;;;;;4.24;100.00;95509.91;5000403;28;19971;-66
2023/02/25 02:00:54;;;;;;;;;;;;;;;4.32;100.00;95507.00;5005080;28;19925;-67
2023/02/25 02:03:21;;;;;;;;;;;;;;;4.14;100.00;95517.47;4997811;28;19987;-67
2023/02/25 02:05:55;;;;;;;;;;;;;;;4.13;100.00;95517.81;5003675;28;20353;-66
2023/02/25 02:08:20;;;;;;;;;;;;;;;4.31;100.00;95513.56;4999589;28;19928;-64
2023/02/25 02:10:45;;;;;;;;;;;;;;;4.27;100.00;95509.19;5000356;28;19921;-66
2023/02/25 02:13:11;;;;;;;;;;;;;;;4.17;100.00;95513.25;4999857;28;20286;-66
2023/02/25 02:15:39;;;;;;;;;;;;;;;4.09;100.00;95514.22;5004094;28;19989;-65
2023/02/25 02:18:06;;;;;;;;;;;;;;;4.15;100.00;95519.03;4999724;28;19929;-68
2023/02/25 02:20:36;;;;;;;;;;;;;;;4.16;100.00;95522.50;5003662;28;19925;-68
2023/02/25 02:23:02;;;;;;;;;;;;;;;4.26;100.00;95518.47;5004390;28;19928;-66
2023/02/25 02:25:43;;;;;;;;;;;;;;;4.22;100.00;95521.88;4998598;28;19925;-67
2023/02/25 02:28:27;;;;;;;;;;;;;;;4.10;100.00;95530.13;4998427;28;19930;-65
2023/02/25 02:31:11;;;;;;;;;;;;;;;4.17;100.00;95529.50;5004231;28;19940;-68
2023/02/25 02:33:48;;;;;;;;;;;;;;;4.02;100.00;95533.84;5004143;28;20056;-67
2023/02/25 02:36:24;;;;;;;;;;;;;;;4.07;100.00;95530.84;4996999;28;19995;-67
2023/02/25 02:39:12;;;;;;;;;;;;;;;4.00;100.00;95539.59;5004860;28;19917;-67
2023/02/25 02:41:58;;;;;;;;;;;;;;;3.91;100.00;95527.41;5010498;28;19921;-68
2023/02/25 02:44:28;;;;;;;;;;;;;;;3.92;100.00;95531.66;5013531;28;20104;-68
2023/02/25 02:46:58;;;;;;;;;;;;;;;3.92;100.00;95539.78;5018004;28;19926;-67
2023/02/25 02:49:38;;;;;;;;;;;;;;;3.99;100.00;95548.84;5000824;28;20847;-66
2023/02/25 02:52:06;;;;;;;;;;;;;;;4.06;100.00;95531.22;4998587;28;19921;-71
2023/02/25 02:54:34;;;;;;;;;;;;;;;4.05;100.00;95535.81;5005029;28;19917;-67
2023/02/25 02:57:00;;;;;;;;;;;;;;;4.11;100.00;95544.50;5001244;28;19964;-66
2023/02/25 02:59:34;;;;;;;;;;;;;;;4.14;100.00;95550.00;4999794;28;19918;-67
2023/02/25 03:02:05;;;;;;;;;;;;;;;4.24;100.00;95556.00;5004703;28;19917;-66
2023/02/25 03:04:32;;;;;;;;;;;;;;;4.07;100.00;95565.28;5003002;28;19925;-66
2023/02/25 03:07:01;;;;;;;;;;;;;;;3.96;100.00;95565.84;5003406;28;20009;-67
2023/02/25 03:09:31;;;;;;;;;;;;;;;4.01;100.00;95572.91;4999585;28;20016;-66
2023/02/25 03:11:56;;;;;;;;;;;;;;;3.88;100.00;95571.44;5004227;28;19917;-66
2023/02/25 03:14:22;;;;;;;;;;;;;;;3.88;100.00;95566.00;4999652;28;20048;-66
2023/02/25 03:17:10;;;;;;;;;;;;;;;3.89;100.00;95562.97;5003860;28;19917;-68
2023/02/25 03:19:40;;;;;;;;;;;;;;;4.13;100.00;95561.19;5000117;28;19947;-66
2023/02/25 03:22:10;;;;;;;;;;;;;;;4.16;100.00;95566.69;4998462;28;20370;-65
2023/02/25 03:24:51;;;;;;;;;;;;;;;4.08;100.00;95570.34;5004750;28;19997;-65
2023/02/25 03:27:19;;;;;;;;;;;;;;;4.10;100.00;95576.19;4999653;28;19980;-67
2023/02/25 03:29:45;;;;;;;;;;;;;;;4.16;100.00;95569.38;5004351;28;19918;-66
2023/02/25 03:32:12;;;;;;;;;;;;;;;4.07;100.00;95566.09;4999699;28;19918;-65
2023/02/25 03:34:41;;;;;;;;;;;;;;;4.07;100.00;95576.13;5004104;28;19926;-65
2023/02/25 03:37:15;;;;;;;;;;;;;;;3.98;100.00;95581.72;4999592;28;19925;-67
2023/02/25 03:39:42;;;;;;;;;;;;;;;4.11;100.00;95577.78;5004282;28;19918;-67
2023/02/25 03:42:11;;;;;;;;;;;;;;;4.00;100.00;95576.75;5003766;28;20291;-64
2023/02/25 03:44:48;;;;;;;;;;;;;;;3.73;100.00;95573.78;5008383;28;19917;-65
2023/02/25 03:47:14;;;;;;;;;;;;;;;3.62;100.00;95573.53;5003026;28;20386;-66
2023/02/25 03:49:47;;;;;;;;;;;;;;;3.64;100.00;95570.47;5009620;28;19918;-68
2023/02/25 03:52:15;;;;;;;;;;;;;;;3.61;100.00;95568.47;5004696;28;19917;-66
2023/02/25 03:54:40;;;;;;;;;;;;;;;3.59;100.00;95585.06;5011962;28;19976;-67
2023/02/25 03:57:06;;;;;;;;;;;;;;;3.49;100.00;95585.56;5008427;28;19925;-65
2023/02/25 03:59:31;;;;;;;;;;;;;;;3.24;100.00;95588.41;5017304;28;19917;-66
2023/02/25 04:01:57;;;;;;;;;;;;;;;3.17;100.00;95595.53;5008429;28;19917;-66
2023/02/25 04:04:23;;;;;;;;;;;;;;;3.12;100.00;95599.28;4997684;28;20688;-68
2023/02/25 04:06:48;;;;;;;;;;;;;;;3.34;100.00;95599.88;5007320;28;20466;-67
2023/02/25 04:09:14;;;;;;;;;;;;;;;3.46;100.00;95602.50;5003193;28;19926;-65
2023/02/25 04:11:39;;;;;;;;;;;;;;;3.55;100.00;95605.84;5008319;28;20015;-63
2023/02/25 04:14:05;;;;;;;;;;;;;;;3.39;100.00;95592.28;5002851;28;20370;-65
2023/02/25 04:16:31;;;;;;;;;;;;;;;3.28;100.00;95602.03;5006763;28;19947;-66
2023/02/25 04:18:58;;;;;;;;;;;;;;;3.22;100.00;95603.41;5007177;28;19953;-65
2023/02/25 04:21:36;;;;;;;;;;;;;;;3.31;100.00;95601.34;5000629;28;19953;-65
2023/02/25 04:24:04;;;;;;;;;;;;;;;3.29;100.00;95602.81;5006826;28;19921;-70
2023/02/25 04:26:30;;;;;;;;;;;;;;;3.13;100.00;95600.06;5006391;28;20072;-66
2023/02/25 04:28:55;;;;;;;;;;;;;;;3.09;100.00;95607.31;5005998;28;20012;-65
2023/02/25 04:31:20;;;;;;;;;;;;;;;3.14;100.00;95597.03;5000513;28;19917;-67
2023/02/25 04:33:48;;;;;;;;;;;;;;;3.09;100.00;95596.50;5007179;28;19937;-65
2023/02/25 04:36:27;;;;;;;;;;;;;;;3.15;100.00;95598.63;5001721;28;19968;-66
2023/02/25 04:38:54;;;;;;;;;;;;;;;3.22;100.00;95598.81;5007161;28;20350;-67
2023/02/25 04:41:19;;;;;;;;;;;;;;;3.32;100.00;95600.22;5000654;28;19940;-67
2023/02/25 04:43:44;;;;;;;;;;;;;;;3.38;100.00;95596.09;5006308;28;19917;-66
2023/02/25 04:46:10;;;;;;;;;;;;;;;3.49;100.00;95606.44;5001397;28;20297;-66
2023/02/25 04:48:35;;;;;;;;;;;;;;;3.64;100.00;95613.81;5005787;28;19968;-66
2023/02/25 04:51:01;;;;;;;;;;;;;;;3.68;100.00;95619.31;5006440;28;19921;-68
2023/02/25 04:53:27;;;;;;;;;;;;;;;3.62;100.00;95613.38;5001635;28;19988;-67
2023/02/25 04:55:52;;;;;;;;;;;;;;;3.63;100.00;95613.00;5006216;28;19925;-66
2023/02/25 04:58:17;;;;;;;;;;;;;;;3.62;100.00;95607.94;4999663;28;19921;-65
2023/02/25 05:00:47;;;;;;;;;;;;;;;3.66;100.00;95618.88;5005995;28;20395;-64
2023/02/25 05:03:12;;;;;;;;;;;;;;;3.68;100.00;95614.66;5000272;28;20402;-66
2023/02/25 05:05:38;;;;;;;;;;;;;;;3.78;100.00;95611.44;5006007;28;19921;-66
2023/02/25 05:08:03;;;;;;;;;;;;;;;3.82;100.00;95604.19;5012967;28;19930;-71
2023/02/25 05:10:29;;;;;;;;;;;;;;;3.81;100.00;95602.59;5008457;28;19922;-65
2023/02/25 05:12:54;;;;;;;;;;;;;;;3.75;100.00;95622.97;5006568;28;19917;-67
2023/02/25 05:15:20;;;;;;;;;;;;;;;3.73;100.00;95619.06;5002597;28;20326;-68
2023/02/25 05:17:45;;;;;;;;;;;;;;;3.59;100.00;95616.75;5005803;28;20282;-68
2023/02/25 05:20:11;;;;;;;;;;;;;;;3.46;100.00;95618.75;5001110;28;19917;-67
2023/02/25 05:22:37;;;;;;;;;;;;;;;3.34;100.00;95608.78;5007116;28;19925;-67
2023/02/25 05:25:03;;;;;;;;;;;;;;;3.25;100.00;95616.25;5004674;28;19918;-69
2023/02/25 05:27:28;;;;;;;;;;;;;;;2.83;100.00;95617.44;5004159;28;20341;-68
2023/02/25 05:29:54;;;;;;;;;;;;;;;2.41;100.00;95608.84;5006940;28;20636;-65
2023/02/25 05:32:20;;;;;;;;;;;;;;;2.37;100.00;95627.66;5000402;28;20004;-66
2023/02/25 05:34:46;;;;;;;;;;;;;;;2.33;100.00;95615.19;5005579;28;20295;-66
2023/02/25 05:37:11;;;;;;;;;;;;;;;2.31;100.00;95623.63;5011398;28;19905;-68
2023/02/25 05:39:37;;;;;;;;;;;;;;;2.16;100.00;95619.69;5007276;28;19937;-64
2023/02/25 05:42:02;;;;;;;;;;;;;;;2.10;100.00;95611.00;5005778;28;19918;-69
2023/02/25 05:44:27;;;;;;;;;;;;;;;2.06;100.00;95618.22;5004532;28;19917;-68
2023/02/25 05:46:52;;;;;;;;;;;;;;;2.04;100.00;95617.78;5008203;28;19917;-66
2023/02/25 05:49:18;;;;;;;;;;;;;;;1.99;100.00;95620.69;5003375;28;19976;-67
2023/02/25 05:51:43;;;;;;;;;;;;;;;1.95;100.00;95616.31;5007815;28;19921;-66
2023/02/25 05:54:08;;;;;;;;;;;;;;;1.92;100.00;95615.84;5003487;28;19978;-67
2023/02/25 05:56:33;;;;;;;;;;;;;;;1.97;100.00;95616.78;5006925;28;19921;-68
2023/02/25 05:58:59;;;;;;;;;;;;;;;2.11;100.00;95628.03;5006163;28;19917;-67
2023/02/25 06:01:26;;;;;;;;;;;;;;;2.27;100.00;95625.44;5002941;28;19918;-64
2023/02/25 06:03:52;;;;;;;;;;;;;;;2.41;100.00;95625.88;5006546;28;20023;-69
2023/02/25 06:06:21;;;;;;;;;;;;;;;2.23;100.00;95622.63;5014226;28;19905;-70
2023/02/25 06:08:48;;;;;;;;;;;;;;;2.19;100.00;95627.09;5023507;28;19910;-71
2023/02/25 06:11:18;;;;;;;;;;;;;;;2.13;100.00;95623.06;5012275;28;20393;-65
2023/02/25 06:13:43;;;;;;;;;;;;;;;2.13;100.00;95619.59;5010026;28;19922;-65
2023/02/25 06:16:08;;;;;;;;;;;;;;;2.26;100.00;95626.53;4999520;28;19924;-66
2023/02/25 06:18:35;;;;;;;;;;;;;;;2.45;100.00;95629.47;5023065;28;20305;-68
2023/02/25 06:21:05;;;;;;;;;;;;;;;2.72;100.00;95634.47;5010380;28;19924;-66
2023/02/25 06:23:31;;;;;;;;;;;;;;;2.80;100.00;95634.34;5007013;28;19921;-65
2023/02/25 06:25:57;;;;;;;;;;;;;;;2.58;100.00;95626.75;5005823;28;20333;-64
2023/02/25 06:28:22;;;;;;;;;;;;;;;2.67;100.00;95632.81;5001306;28;20467;-66
2023/02/25 06:30:48;;;;;;;;;;;;;;;2.71;100.00;95633.69;5007583;28;19927;-65
2023/02/25 06:33:13;;;;;;;;;;;;;;;2.60;100.00;95636.06;5000914;28;20397;-66
2023/02/25 06:35:38;;;;;;;;;;;;;;;2.48;100.00;95641.50;5004861;28;19928;-64
2023/02/25 06:38:04;;;;;;;;;;;;;;;2.61;100.00;95648.47;5000851;28;19925;-68
2023/02/25 06:40:29;;;;;;;;;;;;;;;2.68;100.00;95650.59;5000844;28;19918;-64
2023/02/25 06:42:54;;;;;;;;;;;;;;;2.53;100.00;95645.91;5007492;28;19918;-67
2023/02/25 06:45:19;;;;;;;;;;;;;;;2.48;100.00;95647.72;5003754;28;19918;-68
2023/02/25 06:47:45;;;;;;;;;;;;;;;2.75;100.00;95650.78;5007462;28;19921;-67
2023/02/25 06:50:11;;;;;;;;;;;;;;;2.71;100.00;95659.94;5014468;28;20032;-68
2023/02/25 06:52:36;;;;;;;;;;;;;;;2.62;100.00;95658.16;5018840;28;19918;-70
2023/02/25 06:55:01;;;;;;;;;;;;;;;2.72;100.00;95656.09;5015890;28;19925;-73
2023/02/25 06:57:27;;;;;;;;;;;;;;;2.74;100.00;95659.25;5013491;28;19983;-66
2023/02/25 06:59:52;;;;;;;;;;;;;;;2.72;100.00;95656.91;5009507;28;19972;-67
2023/02/25 07:02:18;;;;;;;;;;;;;;;2.87;100.00;95656.19;5021696;28;19910;-69
2023/02/25 07:04:46;;;;;;;;;;;;;;;2.94;100.00;95649.41;5021369;28;19921;-67
2023/02/25 07:07:11;;;;;;;;;;;;;;;3.16;100.00;95654.28;5006319;28;20080;-67
2023/02/25 07:09:37;;;;;;;;;;;;;;;3.33;100.00;95653.22;5016927;28;19940;-66
2023/02/25 07:12:03;;;;;;;;;;;;;;;3.50;100.00;95651.34;5008643;28;19940;-69
2023/02/25 07:14:28;;;;;;;;;;;;;;;3.64;100.00;95651.72;5015298;28;19949;-66
2023/02/25 07:16:54;;;;;;;;;;;;;;;3.67;100.00;95656.41;5020238;28;19956;-68
2023/02/25 07:19:20;;;;;;;;;;;;;;;3.97;100.00;95664.94;5015128;28;20389;-67
2023/02/25 07:21:45;;;;;;;;;;;;;;;4.03;100.00;95676.28;5020602;28;19922;-68
2023/02/25 07:24:11;;;;;;;;;;;;;;;4.08;100.00;95681.44;5014991;28;19917;-68
2023/02/25 07:26:37;;;;;;;;;;;;;;;4.11;100.00;95688.13;5016756;28;19918;-66
2023/02/25 07:29:03;;;;;;;;;;;;;;;4.07;100.00;95693.44;5008401;28;20016;-68
2023/02/25 07:31:29;;;;;;;;;;;;;;;4.11;100.00;95691.59;5010206;28;19924;-67
2023/02/25 07:33:54;;;;;;;;;;;;;;;4.16;100.00;95688.63;5008443;28;19917;-69
2023/02/25 07:36:20;;;;;;;;;;;;;;;4.11;100.00;95675.34;5004944;28;19948;-69
2023/02/25 07:38:47;;;;;;;;;;;;;;;3.87;100.00;95683.63;5010756;28;19921;-70
2023/02/25 07:41:14;;;;;;;;;;;;;;;3.87;100.00;95680.91;5004682;28;20077;-69
2023/02/25 07:43:39;;;;;;;;;;;;;;;3.52;100.00;95682.34;5011241;28;19917;-68
2023/02/25 07:46:05;;;;;;;;;;;;;;;3.51;100.00;95683.47;5000317;28;19921;-68
2023/02/25 07:48:31;;;;;;;;;;;;;;;3.59;100.00;95687.16;5020983;28;19921;-68
2023/02/25 07:51:02;;;;;;;;;;;;;;;3.61;100.00;95682.97;5011625;28;19997;-68
2023/02/25 07:53:28;;;;;;;;;;;;;;;3.44;100.00;95684.06;5006123;28;19925;-68
2023/02/25 07:55:53;;;;;;;;;;;;;;;3.59;100.00;95679.03;5008177;28;20289;-68
2023/02/25 07:58:19;;;;;;;;;;;;;;;3.89;100.00;95678.63;5002535;28;19917;-69
2023/02/25 08:00:46;;;;;;;;;;;;;;;4.08;100.00;95669.84;5009589;28;19945;-69
2023/02/25 08:03:11;;;;;;;;;;;;;;;4.10;100.00;95671.03;5003917;28;19964;-69
2023/02/25 08:05:36;;;;;;;;;;;;;;;4.14;100.00;95671.94;5008141;28;19949;-70
2023/02/25 08:08:02;;;;;;;;;;;;;;;4.33;100.00;95663.09;5007166;28;19921;-68
2023/02/25 08:10:27;;;;;;;;;;;;;;;4.30;100.00;95665.72;5022007;28;20356;-69
2023/02/25 08:12:53;;;;;;;;;;;;;;;4.34;100.00;95663.84;5009718;28;19968;-68
2023/02/25 08:15:18;;;;;;;;;;;;;;;4.30;100.00;95661.06;5015056;28;19906;-70
2023/02/25 08:17:44;;;;;;;;;;;;;;;4.30;100.00;95658.34;5024851;28;19988;-70
2023/02/25 08:20:12;;;;;;;;;;;;;;;4.21;100.00;95661.28;5015109;28;19949;-69
2023/02/25 08:22:38;;;;;;;;;;;;;;;4.21;100.00;95668.59;5018455;28;20255;-69
2023/02/25 08:25:03;;;;;;;;;;;;;;;4.20;100.00;95656.97;5011900;28;19921;-67
2023/02/25 08:27:29;;;;;;;;;;;;;;;4.26;100.00;95671.03;5011813;28;19930;-68
2023/02/25 08:29:55;;;;;;;;;;;;;;;4.33;100.00;95660.38;4989820;28;19917;-69
2023/02/25 08:32:23;;;;;;;;;;;;;;;4.44;100.00;95659.84;4985730;28;19917;-68
2023/02/25 08:34:49;;;;;;;;;;;;;;;4.48;100.00;95664.19;4998572;28;19922;-70
2023/02/25 08:37:14;;;;;;;;;;;;;;;4.60;100.00;95666.81;4989193;28;20020;-69
2023/02/25 08:39:40;;;;;;;;;;;;;;;4.84;100.00;95659.56;4989096;28;19918;-70
2023/02/25 08:42:05;;;;;;;;;;;;;;;5.01;100.00;95658.41;4985061;28;19922;-70
2023/02/25 08:44:30;;;;;;;;;;;;;;;4.99;100.00;95657.97;4999804;28;19924;-70
2023/02/25 08:46:56;;;;;;;;;;;;;;;5.02;100.00;95661.88;4983495;28;19925;-70
2023/02/25 08:49:21;;;;;;;;;;;;;;;4.85;100.00;95665.81;4984141;28;20293;-70
2023/02/25 08:51:49;;;;;;;;;;;;;;;4.75;100.00;95662.50;4991680;28;19918;-69
2023/02/25 08:54:14;;;;;;;;;;;;;;;4.71;100.00;95672.47;4983813;28;19918;-69
2023/02/25 08:56:43;;;;;;;;;;;;;;;4.69;100.00;95666.63;4987722;28;19953;-66
2023/02/25 08:59:13;;;;;;;;;;;;;;;4.67;100.00;95658.06;4984684;28;20387;-70
2023/02/25 09:01:44;;;;;;;;;;;;;;;4.64;100.00;95652.53;5003713;28;19965;-70
2023/02/25 09:04:16;;;;;;;;;;;;;;;4.67;100.00;95655.34;4984167;28;19926;-69
2023/02/25 09:06:42;;;;;;;;;;;;;;;4.74;100.00;95660.91;4988764;28;19918;-69
2023/02/25 09:09:07;;;;;;;;;;;;;;;4.66;100.00;95664.59;4983120;28;20368;-70
2023/02/25 09:11:32;;;;;;;;;;;;;;;4.64;100.00;95664.16;4988770;28;20391;-69
2023/02/25 09:13:58;;;;;;;;;;;;;;;4.63;100.00;95662.63;4989971;28;19972;-70
2023/02/25 09:16:23;;;;;;;;;;;;;;;4.55;100.00;95658.94;4982856;28;19922;-68
2023/02/25 09:18:50;;;;;;;;;;;;;;;4.67;100.00;95663.47;4987320;28;19925;-67
2023/02/25 09:21:15;;;;;;;;;;;;;;;4.64;100.00;95660.69;4984288;28;19925;-70
2023/02/25 09:23:41;;;;;;;;;;;;;;;4.68;100.00;95650.69;4987085;28;19922;-68
2023/02/25 09:26:06;;;;;;;;;;;;;;;4.56;100.00;95651.59;4983232;28;19922;-68
2023/02/25 09:28:32;;;;;;;;;;;;;;;4.45;100.00;95654.06;4989399;28;19922;-69
2023/02/25 09:30:57;;;;;;;;;;;;;;;4.33;100.00;95660.38;4989359;28;20001;-70
2023/02/25 09:33:25;;;;;;;;;;;;;;;4.43;100.00;95650.13;4984882;28;21986;-70
2023/02/25 09:35:54;;;;;;;;;;;;;;;4.33;100.00;95649.53;4990732;28;20434;-70
2023/02/25 09:38:20;;;;;;;;;;;;;;;4.44;100.00;95649.00;4983640;28;19922;-68
2023/02/25 09:40:46;;;;;;;;;;;;;;;4.50;100.00;95650.28;4990046;28;19980;-69
2023/02/25 09:43:14;;;;;;;;;;;;;;;4.45;100.00;95662.22;4989376;28;19918;-71
2023/02/25 09:45:45;;;;;;;;;;;;;;;4.63;100.00;95654.47;5009097;28;19917;-70
2023/02/25 09:48:25;;;;;;;;;;;;;;;4.64;100.00;95656.03;5005209;28;19972;-71
2023/02/25 09:50:53;;;;;;;;;;;;;;;4.65;100.00;95663.03;5009567;28;19917;-70
2023/02/25 09:53:26;;;;;;;;;;;;;;;4.82;100.00;95667.28;5005048;28;19925;-71
2023/02/25 09:55:52;;;;;;;;;;;;;;;4.96;100.00;95659.44;5012298;28;20047;-68
2023/02/25 09:58:24;;;;;;;;;;;;;;;4.87;100.00;95666.22;5002265;28;19922;-70
2023/02/25 10:00:57;;;;;;;;;;;;;;;5.04;100.00;95660.41;5009464;28;20461;-71
2023/02/25 10:03:25;;;;;;;;;;;;;;;4.98;100.00;95659.09;5003651;28;20402;-71
2023/02/25 10:06:03;;;;;;;;;;;;;;;4.63;100.00;95665.31;5007843;28;19925;-70
2023/02/25 10:08:34;;;;;;;;;;;;;;;4.67;100.00;95659.97;5005568;28;19980;-71
2023/02/25 10:11:08;;;;;;;;;;;;;;;4.65;100.00;95662.28;5007818;28;19917;-69
2023/02/25 10:13:56;;;;;;;;;;;;;;;4.72;100.00;95660.50;5006129;28;19932;-69
2023/02/25 10:16:41;;;;;;;;;;;;;;;4.87;100.00;95660.81;5004569;28;19918;-70
2023/02/25 10:19:07;;;;;;;;;;;;;;;4.78;100.00;95656.34;5004281;28;19918;-71
2023/02/25 10:21:41;;;;;;;;;;;;;;;4.95;100.00;95657.91;5003717;28;20052;-70
2023/02/25 10:24:12;;;;;;;;;;;;;;;5.01;100.00;95655.69;5006954;28;19933;-68
2023/02/25 10:26:44;;;;;;;;;;;;;;;4.96;100.00;95658.66;5018891;28;19918;-70
2023/02/25 10:29:23;;;;;;;;;;;;;;;4.93;100.00;95659.38;5016312;28;19965;-70
2023/02/25 10:31:48;;;;;;;;;;;;;;;5.01;100.00;95644.06;5024275;28;19917;-71
2023/02/25 10:34:20;;;;;;;;;;;;;;;5.11;100.00;95644.25;5013888;28;20370;-70
2023/02/25 10:36:52;;;;;;;;;;;;;;;5.07;100.00;95643.38;5011635;28;19956;-70
2023/02/25 10:39:17;;;;;;;;;;;;;;;4.98;100.00;95640.09;5004289;28;20298;-71
2023/02/25 10:41:43;;;;;;;;;;;;;;;4.78;100.00;95647.44;5008238;28;19917;-71
2023/02/25 10:44:11;;;;;;;;;;;;;;;4.59;100.00;95640.84;5000575;28;19925;-71
2023/02/25 10:46:56;;;;;;;;;;;;;;;4.57;100.00;95639.59;4985397;28;19964;-70
2023/02/25 10:49:26;;;;;;;;;;;;;;;4.58;100.00;95636.53;4985970;28;21808;-71
2023/02/25 10:52:02;;;;;;;;;;;;;;;4.66;100.00;95642.91;5009129;28;19929;-72
2023/02/25 10:54:29;;;;;;;;;;;;;;;4.72;100.00;95632.59;5009150;28;20278;-71
2023/02/25 10:56:57;;;;;;;;;;;;;;;4.90;100.00;95641.88;5007138;28;20024;-72
2023/02/25 10:59:27;;;;;;;;;;;;;;;5.06;100.00;95632.88;4983269;28;20456;-71
2023/02/25 11:01:54;;;;;;;;;;;;;;;5.04;99.59;95632.47;5003031;28;19971;-71
2023/02/25 11:04:22;;;;;;;;;;;;;;;4.94;96.92;95634.59;5005369;28;19944;-71
2023/02/25 11:06:48;;;;;;;;;;;;;;;5.02;94.73;95643.66;5020898;28;19934;-72
2023/02/25 11:09:19;;;;;;;;;;;;;;;5.04;95.58;95641.41;5002287;28;19933;-68
2023/02/25 11:11:55;;;;;;;;;;;;;;;5.08;95.28;95639.53;5027009;28;19925;-70
2023/02/25 11:14:31;;;;;;;;;;;;;;;5.11;96.52;95638.84;4987217;28;19929;-70
2023/02/25 11:17:02;;;;;;;;;;;;;;;5.06;97.58;95638.31;5010951;28;19928;-71
2023/02/25 11:19:30;;;;;;;;;;;;;;;5.01;99.16;95628.53;5006423;28;20012;-71
2023/02/25 11:21:56;;;;;;;;;;;;;;;5.05;99.02;95626.69;5003963;28;19922;-70
2023/02/25 11:24:22;;;;;;;;;;;;;;;4.75;97.82;95627.25;5003005;28;20448;-69
2023/02/25 11:26:49;;;;;;;;;;;;;;;4.58;96.44;95627.63;4991366;28;19965;-69
2023/02/25 11:29:19;;;;;;;;;;;;;;;4.67;93.95;95622.78;5001635;28;19933;-70
2023/02/25 11:31:47;;;;;;;;;;;;;;;4.56;94.51;95630.69;4991165;28;19925;-69
2023/02/25 11:34:15;;;;;;;;;;;;;;;4.57;93.81;95626.03;4998733;28;19925;-71
2023/02/25 11:36:40;;;;;;;;;;;;;;;4.77;93.98;95624.94;5005275;28;20286;-70
2023/02/25 11:39:14;;;;;;;;;;;;;;;4.90;92.74;95616.69;5001781;28;19932;-70
2023/02/25 11:41:40;;;;;;;;;;;;;;;4.90;93.85;95612.03;5006554;28;19921;-70
2023/02/25 11:44:18;;;;;;;;;;;;;;;4.84;93.02;95613.44;5003268;28;19921;-68
2023/02/25 11:46:44;;;;;;;;;;;;;;;4.76;94.29;95603.59;5007133;28;19926;-70
2023/02/25 11:49:10;;;;;;;;;;;;;;;4.65;95.11;95606.09;4996364;28;19925;-70
2023/02/25 11:51:35;;;;;;;;;;;;;;;4.96;96.50;95591.59;4977719;28;20409;-70
2023/02/25 11:54:07;;;;;;;;;;;;;;;5.11;91.79;95598.13;4970308;28;19928;-69
2023/02/25 11:56:37;;;;;;;;;;;;;;;5.28;91.62;95588.75;4997073;28;19961;-71
2023/02/25 11:59:12;;;;;;;;;;;;;;;4.87;92.33;95585.63;5010086;28;19960;-70
2023/02/25 12:01:37;;;;;;;;;;;;;;;5.00;92.61;95580.03;5008775;28;19929;-71
2023/02/25 12:04:08;;;;;;;;;;;;;;;4.89;93.82;95586.03;5003224;28;19980;-70
2023/02/25 12:06:52;;;;;;;;;;;;;;;4.93;91.52;95576.06;5008497;28;19921;-71
2023/02/25 12:09:39;;;;;;;;;;;;;;;5.14;92.17;95577.59;5005645;28;19925;-72
2023/02/25 12:12:13;;;;;;;;;;;;;;;4.79;90.90;95579.25;5001106;28;19932;-71
2023/02/25 12:14:38;;;;;;;;;;;;;;;4.84;90.52;95580.13;5004356;28;20330;-71
2023/02/25 12:17:13;;;;;;;;;;;;;;;4.82;88.41;95580.47;5006365;28;19952;-72
2023/02/25 12:19:38;;;;;;;;;;;;;;;5.13;87.97;95581.47;5009726;28;19945;-71
2023/02/25 12:22:22;;;;;;;;;;;;;;;5.38;82.64;95579.22;5005377;28;19932;-69
2023/02/25 12:25:09;;;;;;;;;;;;;;;5.22;83.62;95579.34;5009236;28;19922;-71
2023/02/25 12:27:35;;;;;;;;;;;;;;;5.19;82.73;95592.84;4999316;28;19941;-70
2023/02/25 12:30:25;;;;;;;;;;;;;;;5.16;81.41;95592.38;5009908;28;20763;-70
2023/02/25 12:33:06;;;;;;;;;;;;;;;4.94;83.41;95591.19;5009914;28;19926;-71
2023/02/25 12:35:34;;;;;;;;;;;;;;;5.26;82.47;95601.13;5018275;28;19937;-72
2023/02/25 12:38:03;;;;;;;;;;;;;;;5.39;81.67;95601.75;5027636;28;19929;-72
2023/02/25 12:40:31;;;;;;;;;;;;;;;5.36;81.39;95600.50;5013873;28;19925;-71
2023/02/25 12:43:12;;;;;;;;;;;;;;;5.11;79.46;95611.69;5008754;28;19938;-71
2023/02/25 12:45:56;;;;;;;;;;;;;;;4.99;81.58;95609.13;4993134;28;20460;-71
2023/02/25 12:48:40;;;;;;;;;;;;;;;5.15;79.55;95600.91;5003124;28;20190;-71
2023/02/25 12:51:05;;;;;;;;;;;;;;;5.09;78.81;95597.66;5003314;28;20011;-71
2023/02/25 12:54:00;;;;;;;;;;;;;;;5.10;81.92;95599.25;5007398;28;19965;-71